Arnaudville, Louisiana
Current Conditions -  °F | °C
As of 11:53 PM on Friday 19 Dec 2014 (Local Time) from KLFT Reporting Station
Overcast Overcast  
Wind Chill: 10°   Ceiling: 500
Heat Index: 10°   Visibility: 10mi
Dew Point: 10°   Wind: 13mph
Humidity: 100%   Direction: 10°N
Pressure: 30.09"   Gusts: NA
Location:  30.4°N, 91.93°W
Report Text: KLFT 200553Z AUTO 01011KT 10SM OVC005 10/10 A3009 RMK AO2 RAE0459 SLP190 P0000 60011 T01000100 10106 20100 401440100 53003 $
Loading
Personal Weather Stations






























Interactive Weather Map New forecast layout! Learn more

10-Day Weather Forecast

Advertisements
Track Severe Weather on mobile